Time;durP1;ratioP1;P1;durP2;ratioP2;P2;SDS_P1;SDS_P2;PMS_P1;PMS_P2;Temp;Humidity;BMP_temperature;BMP_pressure;BME280_temperature;BME280_humidity;BME280_pressure;Samples;Min_cycle;Max_cycle;Signal;HPM_P1;HPM_P2
2020/12/27 00:01:31;;;;;;;52.58;20.90;;;;;;;;;;8158926;28;20469;-73
2020/12/27 00:05:35;;;;;;;43.97;17.27;;;;;;;;;;8157297;28;20453;-74
2020/12/27 00:09:43;;;;;;;62.58;21.38;;;;;;;;;;8158013;28;20417;-73
2020/12/27 00:13:46;;;;;;;57.03;23.58;;;;;;;;;;8158145;28;20500;-73
2020/12/27 00:17:49;;;;;;;53.88;22.20;;;;;;;;;;8159262;28;20384;-73
2020/12/27 00:21:52;;;;;;;57.55;19.55;;;;;;;;;;8159140;28;20359;-73
2020/12/27 00:25:56;;;;;;;58.22;18.02;;;;;;;;;;8158950;28;20418;-73
2020/12/27 00:29:58;;;;;;;49.55;18.35;;;;;;;;;;8158840;28;20481;-74
2020/12/27 00:34:02;;;;;;;50.15;18.98;;;;;;;;;;8160786;28;20507;-73
2020/12/27 00:38:05;;;;;;;56.58;20.55;;;;;;;;;;8164355;28;20469;-74
2020/12/27 00:42:08;;;;;;;38.83;13.00;;;;;;;;;;8164539;28;20450;-74
2020/12/27 00:46:11;;;;;;;37.35;15.18;;;;;;;;;;8162613;28;20488;-73
2020/12/27 00:50:14;;;;;;;34.97;12.98;;;;;;;;;;8163676;28;20366;-73
2020/12/27 00:54:17;;;;;;;37.97;13.10;;;;;;;;;;8163430;28;20477;-73
2020/12/27 00:58:21;;;;;;;45.33;14.52;;;;;;;;;;8146534;28;20366;-73
2020/12/27 01:02:25;;;;;;;37.13;12.13;;;;;;;;;;8164171;28;20072;-74
2020/12/27 01:07:06;;;;;;;47.78;15.13;;;;;;;;;;8160124;28;20457;-74
2020/12/27 01:11:10;;;;;;;44.92;15.65;;;;;;;;;;8161327;28;20363;-74
2020/12/27 01:15:15;;;;;;;55.67;19.48;;;;;;;;;;8161682;28;20469;-73
2020/12/27 01:19:41;;;;;;;40.80;14.98;;;;;;;;;;8163324;28;20568;-73
2020/12/27 01:23:44;;;;;;;54.83;19.35;;;;;;;;;;8162767;28;20389;-73
2020/12/27 01:27:47;;;;;;;38.80;13.68;;;;;;;;;;8145149;28;20485;-73
2020/12/27 01:31:50;;;;;;;34.42;12.50;;;;;;;;;;8145851;28;20449;-73
2020/12/27 01:36:09;;;;;;;32.55;11.55;;;;;;;;;;8161333;28;20381;-73
2020/12/27 01:40:13;;;;;;;33.95;12.57;;;;;;;;;;8160700;28;20610;-73
2020/12/27 01:44:19;;;;;;;40.78;13.13;;;;;;;;;;8145099;28;20528;-73
2020/12/27 01:48:25;;;;;;;36.83;13.60;;;;;;;;;;8144869;28;20507;-73
2020/12/27 01:52:35;;;;;;;37.38;13.95;;;;;;;;;;8129592;28;20461;-73
2020/12/27 01:56:50;;;;;;;34.67;12.43;;;;;;;;;;8160343;28;20058;-73
2020/12/27 02:01:00;;;;;;;36.05;13.48;;;;;;;;;;8145073;28;20376;-73
2020/12/27 02:05:33;;;;;;;36.30;14.38;;;;;;;;;;8159965;28;20377;-73
2020/12/27 02:09:37;;;;;;;37.20;13.20;;;;;;;;;;8144044;28;20369;-73
2020/12/27 02:13:53;;;;;;;36.10;14.02;;;;;;;;;;8159607;28;20382;-73
2020/12/27 02:17:58;;;;;;;32.70;11.63;;;;;;;;;;8143378;28;20377;-73
2020/12/27 02:22:06;;;;;;;36.55;11.93;;;;;;;;;;8159355;28;20374;-73
2020/12/27 02:26:29;;;;;;;30.42;10.35;;;;;;;;;;8161045;28;20380;-73
2020/12/27 02:30:33;;;;;;;28.98;11.00;;;;;;;;;;8159089;28;20465;-73
2020/12/27 02:34:39;;;;;;;23.08;9.98;;;;;;;;;;8158479;28;20362;-73
2020/12/27 02:38:42;;;;;;;29.60;11.15;;;;;;;;;;8160497;28;20423;-73
2020/12/27 02:42:50;;;;;;;26.75;9.98;;;;;;;;;;8158872;28;20471;-73
2020/12/27 02:46:53;;;;;;;25.80;8.63;;;;;;;;;;8160551;28;20465;-73
2020/12/27 02:51:17;;;;;;;28.33;8.38;;;;;;;;;;8160246;28;20351;-73
2020/12/27 02:55:20;;;;;;;21.23;7.93;;;;;;;;;;8158179;28;20480;-73
2020/12/27 02:59:27;;;;;;;23.98;7.75;;;;;;;;;;8158776;28;20477;-73
2020/12/27 03:03:38;;;;;;;25.40;8.65;;;;;;;;;;8158397;28;20374;-73
2020/12/27 03:08:04;;;;;;;22.15;7.57;;;;;;;;;;8146172;28;20476;-74
2020/12/27 03:12:27;;;;;;;18.13;7.05;;;;;;;;;;8158220;28;20064;-73
2020/12/27 03:16:31;;;;;;;22.30;7.47;;;;;;;;;;8159726;28;20478;-73
2020/12/27 03:21:09;;;;;;;28.77;11.93;;;;;;;;;;8131450;28;20380;-73
2020/12/27 03:25:13;;;;;;;18.75;6.95;;;;;;;;;;8158433;28;20350;-73
2020/12/27 03:29:17;;;;;;;26.85;9.52;;;;;;;;;;8142041;28;20385;-73
2020/12/27 03:33:20;;;;;;;15.38;7.32;;;;;;;;;;8158042;28;20491;-73
2020/12/27 03:37:35;;;;;;;14.32;6.05;;;;;;;;;;8158319;28;20409;-73
2020/12/27 03:42:11;;;;;;;17.50;6.78;;;;;;;;;;8179302;28;20465;-73
2020/12/27 03:46:23;;;;;;;14.60;5.50;;;;;;;;;;8158048;28;20378;-73
2020/12/27 03:50:44;;;;;;;13.07;5.00;;;;;;;;;;8158227;28;20050;-73
2020/12/27 03:54:47;;;;;;;12.75;5.63;;;;;;;;;;8157910;28;20054;-74
2020/12/27 03:59:12;;;;;;;13.45;6.38;;;;;;;;;;8159510;28;20491;-73
2020/12/27 04:03:21;;;;;;;18.48;6.78;;;;;;;;;;8159003;28;20380;-73
2020/12/27 04:07:26;;;;;;;11.65;5.97;;;;;;;;;;8158416;28;20473;-74
2020/12/27 04:11:44;;;;;;;11.90;5.63;;;;;;;;;;8149641;28;20412;-74
2020/12/27 04:15:48;;;;;;;15.25;6.63;;;;;;;;;;8148071;28;20068;-73
2020/12/27 04:19:55;;;;;;;18.10;6.13;;;;;;;;;;8148241;28;20043;-73
2020/12/27 04:23:59;;;;;;;17.52;6.93;;;;;;;;;;8163079;28;20377;-74
2020/12/27 04:28:04;;;;;;;10.52;5.50;;;;;;;;;;8147275;28;20428;-74
2020/12/27 04:32:07;;;;;;;22.95;6.20;;;;;;;;;;8162866;28;20484;-73
2020/12/27 04:36:30;;;;;;;20.70;6.00;;;;;;;;;;8163148;28;20054;-73
2020/12/27 04:40:42;;;;;;;14.38;5.90;;;;;;;;;;8147600;28;20453;-73
2020/12/27 04:44:46;;;;;;;13.07;5.63;;;;;;;;;;8162377;28;20093;-73
2020/12/27 04:49:03;;;;;;;14.48;5.63;;;;;;;;;;8147847;28;20112;-73
2020/12/27 04:53:20;;;;;;;9.60;5.27;;;;;;;;;;8163128;28;20056;-73
2020/12/27 04:57:27;;;;;;;12.90;5.05;;;;;;;;;;8147473;28;20355;-73
2020/12/27 05:01:31;;;;;;;16.50;6.03;;;;;;;;;;8146478;28;20469;-73
2020/12/27 05:05:58;;;;;;;16.15;5.22;;;;;;;;;;8161833;28;20351;-73
2020/12/27 05:10:01;;;;;;;15.85;6.40;;;;;;;;;;8161338;28;20462;-73
2020/12/27 05:14:07;;;;;;;15.30;6.65;;;;;;;;;;8162000;28;20376;-73
2020/12/27 05:18:19;;;;;;;17.13;6.47;;;;;;;;;;8160906;28;20406;-73
2020/12/27 05:22:24;;;;;;;23.52;9.80;;;;;;;;;;8146053;28;20477;-73
2020/12/27 05:26:43;;;;;;;25.58;9.77;;;;;;;;;;8146694;28;20480;-74
2020/12/27 05:31:15;;;;;;;34.45;13.18;;;;;;;;;;8132153;28;20488;-73
2020/12/27 05:35:37;;;;;;;24.40;9.23;;;;;;;;;;8162838;28;20488;-73
2020/12/27 05:39:45;;;;;;;25.52;8.43;;;;;;;;;;8145976;28;20500;-73
2020/12/27 05:44:10;;;;;;;21.13;7.85;;;;;;;;;;8161127;28;20429;-73
2020/12/27 05:48:14;;;;;;;16.83;7.57;;;;;;;;;;8160368;28;20524;-73
2020/12/27 05:52:22;;;;;;;20.60;8.18;;;;;;;;;;8145080;28;20450;-73
2020/12/27 05:56:41;;;;;;;24.73;8.27;;;;;;;;;;8148162;28;20369;-72
2020/12/27 06:00:46;;;;;;;15.98;7.03;;;;;;;;;;8144939;28;20449;-73
2020/12/27 06:05:16;;;;;;;18.40;7.38;;;;;;;;;;8160643;28;20382;-73
2020/12/27 06:10:04;;;;;;;19.13;7.78;;;;;;;;;;8128349;28;20503;-73
2020/12/27 06:14:17;;;;;;;25.05;8.68;;;;;;;;;;8159122;28;20373;-73
2020/12/27 06:19:08;;;;;;;34.05;10.10;;;;;;;;;;8160916;28;20373;-73
2020/12/27 06:23:15;;;;;;;172.45;50.70;;;;;;;;;;8145195;28;20373;-73
2020/12/27 06:27:23;;;;;;;73.25;21.10;;;;;;;;;;8143905;28;20068;-73
2020/12/27 06:31:27;;;;;;;66.82;21.63;;;;;;;;;;8158671;28;20473;-73
2020/12/27 06:35:45;;;;;;;45.97;14.90;;;;;;;;;;8145090;28;20450;-73
2020/12/27 06:39:49;;;;;;;20.38;8.63;;;;;;;;;;8143736;28;20481;-73
2020/12/27 06:44:42;;;;;;;18.67;7.70;;;;;;;;;;8134419;28;20358;-73
2020/12/27 06:49:13;;;;;;;21.67;9.40;;;;;;;;;;8108713;28;20422;-73
2020/12/27 06:53:39;;;;;;;20.88;9.82;;;;;;;;;;8151309;28;20477;-73
2020/12/27 06:57:51;;;;;;;28.23;12.15;;;;;;;;;;8158380;28;20466;-73
2020/12/27 07:02:20;;;;;;;21.83;10.45;;;;;;;;;;8143218;28;20047;-73
2020/12/27 07:06:26;;;;;;;19.58;9.70;;;;;;;;;;8159244;28;20357;-73
2020/12/27 07:10:43;;;;;;;30.00;13.02;;;;;;;;;;8158628;28;20385;-73
2020/12/27 07:14:46;;;;;;;51.83;19.50;;;;;;;;;;8158648;28;20420;-73
2020/12/27 07:19:01;;;;;;;86.85;34.83;;;;;;;;;;8158169;28;20393;-73
2020/12/27 07:23:18;;;;;;;65.83;25.40;;;;;;;;;;8159653;28;20050;-73
2020/12/27 07:27:23;;;;;;;51.55;19.35;;;;;;;;;;8158706;28;20782;-73
2020/12/27 07:31:32;;;;;;;41.47;15.02;;;;;;;;;;8157847;28;20435;-73
2020/12/27 07:35:37;;;;;;;34.55;15.60;;;;;;;;;;8158302;28;20404;-73
2020/12/27 07:39:59;;;;;;;21.67;7.80;;;;;;;;;;8157537;28;20477;-73
2020/12/27 07:44:17;;;;;;;15.70;6.22;;;;;;;;;;8163306;28;20381;-73
2020/12/27 07:48:20;;;;;;;19.33;8.35;;;;;;;;;;8165758;28;20477;-73
2020/12/27 07:52:39;;;;;;;23.63;8.50;;;;;;;;;;8165899;28;20391;-73
2020/12/27 07:56:43;;;;;;;14.67;7.90;;;;;;;;;;8150197;28;20372;-72
2020/12/27 08:00:46;;;;;;;14.80;6.95;;;;;;;;;;8165345;28;20482;-73
2020/12/27 08:04:55;;;;;;;27.95;10.73;;;;;;;;;;8165133;28;20055;-72
2020/12/27 08:09:07;;;;;;;28.95;9.65;;;;;;;;;;8163447;28;20063;-72
2020/12/27 08:13:11;;;;;;;15.02;6.28;;;;;;;;;;8163896;28;20405;-72
2020/12/27 08:17:16;;;;;;;19.13;8.10;;;;;;;;;;8165075;28;20504;-72
2020/12/27 08:21:19;;;;;;;18.00;7.88;;;;;;;;;;8163978;28;20354;-73
2020/12/27 08:25:22;;;;;;;25.73;10.15;;;;;;;;;;8092364;28;20397;-73
2020/12/27 08:29:26;;;;;;;28.33;12.07;;;;;;;;;;8164320;28;20389;-72
2020/12/27 08:33:29;;;;;;;29.10;10.88;;;;;;;;;;8164621;28;20481;-73
2020/12/27 08:37:40;;;;;;;26.30;11.23;;;;;;;;;;8163284;28;20073;-73
2020/12/27 08:41:55;;;;;;;28.85;11.95;;;;;;;;;;8147920;28;20377;-73
2020/12/27 08:45:58;;;;;;;27.08;10.75;;;;;;;;;;8126874;28;20363;-73
2020/12/27 08:50:15;;;;;;;23.00;9.80;;;;;;;;;;8161873;28;20382;-73
2020/12/27 08:54:20;;;;;;;24.77;10.20;;;;;;;;;;8161605;28;20050;-74
2020/12/27 08:58:24;;;;;;;28.73;11.93;;;;;;;;;;8146578;28;20373;-74
2020/12/27 09:02:27;;;;;;;18.60;8.93;;;;;;;;;;8164034;28;20473;-73
2020/12/27 09:06:31;;;;;;;53.25;23.17;;;;;;;;;;8163422;28;20046;-73
2020/12/27 09:10:34;;;;;;;34.85;14.88;;;;;;;;;;8145812;28;20072;-73
2020/12/27 09:14:37;;;;;;;26.02;11.20;;;;;;;;;;8145763;28;20515;-73
2020/12/27 09:18:42;;;;;;;21.67;10.15;;;;;;;;;;8163484;28;20069;-73
2020/12/27 09:22:46;;;;;;;26.70;10.52;;;;;;;;;;8161432;28;20050;-73
2020/12/27 09:26:49;;;;;;;23.70;10.40;;;;;;;;;;8163221;28;20480;-74
2020/12/27 09:31:12;;;;;;;23.05;9.48;;;;;;;;;;8018197;28;20392;-74
2020/12/27 09:35:22;;;;;;;20.45;9.13;;;;;;;;;;8069734;28;20362;-73
2020/12/27 09:39:32;;;;;;;20.02;9.52;;;;;;;;;;8161464;28;20050;-74
2020/12/27 09:43:58;;;;;;;18.50;7.80;;;;;;;;;;8161269;28;20409;-74
2020/12/27 09:48:03;;;;;;;18.88;6.93;;;;;;;;;;8161832;28;20488;-75
2020/12/27 09:52:12;;;;;;;26.05;10.10;;;;;;;;;;8160835;28;20417;-75
2020/12/27 09:56:15;;;;;;;19.50;7.22;;;;;;;;;;8160491;28;20422;-75
2020/12/27 10:00:18;;;;;;;11.70;5.57;;;;;;;;;;8160303;28;20381;-74
2020/12/27 10:04:21;;;;;;;24.52;8.75;;;;;;;;;;8160192;28;20077;-75
2020/12/27 10:08:25;;;;;;;15.23;5.72;;;;;;;;;;8161464;28;20081;-74
2020/12/27 10:12:30;;;;;;;9.07;4.38;;;;;;;;;;8159644;28;20389;-74
2020/12/27 10:16:33;;;;;;;21.20;7.47;;;;;;;;;;8161638;28;20370;-73
2020/12/27 10:20:40;;;;;;;14.05;5.75;;;;;;;;;;8159522;28;20527;-74
2020/12/27 10:24:44;;;;;;;145.15;34.50;;;;;;;;;;8159229;28;20531;-73
2020/12/27 10:28:47;;;;;;;114.57;21.67;;;;;;;;;;8159177;28;20528;-72
2020/12/27 10:32:51;;;;;;;46.90;10.25;;;;;;;;;;8160853;28;20066;-74
2020/12/27 10:36:57;;;;;;;386.45;73.93;;;;;;;;;;8160870;28;20054;-73
2020/12/27 10:41:04;;;;;;;27.52;9.43;;;;;;;;;;8159458;28;20377;-73
2020/12/27 10:45:06;;;;;;;23.52;8.15;;;;;;;;;;8138969;28;20481;-72
2020/12/27 10:49:10;;;;;;;19.25;7.72;;;;;;;;;;8144626;28;20477;-73
2020/12/27 10:53:13;;;;;;;28.15;8.25;;;;;;;;;;8151022;28;20381;-73
2020/12/27 10:57:21;;;;;;;18.23;6.90;;;;;;;;;;8155760;28;20458;-73
2020/12/27 11:01:24;;;;;;;68.82;13.63;;;;;;;;;;8156082;28;20358;-73
2020/12/27 11:05:27;;;;;;;15.90;7.88;;;;;;;;;;8155890;28;20487;-73
2020/12/27 11:09:32;;;;;;;18.92;7.78;;;;;;;;;;8154654;28;20478;-73
2020/12/27 11:13:36;;;;;;;26.88;9.13;;;;;;;;;;8155687;28;20458;-73
2020/12/27 11:17:39;;;;;;;22.98;7.07;;;;;;;;;;8156658;28;20506;-72
2020/12/27 11:21:47;;;;;;;66.50;15.18;;;;;;;;;;8187815;28;20046;-72
2020/12/27 11:25:51;;;;;;;223.18;39.00;;;;;;;;;;8171086;28;20046;-72
2020/12/27 11:29:55;;;;;;;52.17;13.70;;;;;;;;;;8174154;28;20409;-73
2020/12/27 11:33:58;;;;;;;134.93;29.02;;;;;;;;;;8158307;28;20346;-72
2020/12/27 11:38:02;;;;;;;329.85;58.70;;;;;;;;;;8159030;28;20462;-72
2020/12/27 11:42:07;;;;;;;194.15;40.38;;;;;;;;;;8158402;28;20382;-73
2020/12/27 11:46:11;;;;;;;134.82;31.15;;;;;;;;;;8157136;28;20073;-73
2020/12/27 11:50:14;;;;;;;96.03;22.27;;;;;;;;;;8157409;28;20389;-73
2020/12/27 11:54:17;;;;;;;189.20;38.63;;;;;;;;;;8141949;28;20072;-73
2020/12/27 11:58:20;;;;;;;35.83;11.45;;;;;;;;;;8133368;28;20366;-73
2020/12/27 12:02:24;;;;;;;455.83;98.60;;;;;;;;;;8148008;28;20054;-73
2020/12/27 12:06:29;;;;;;;47.00;15.48;;;;;;;;;;8159671;28;20358;-73
2020/12/27 12:10:32;;;;;;;21.80;7.97;;;;;;;;;;8157244;28;20477;-73
2020/12/27 12:14:35;;;;;;;21.27;6.72;;;;;;;;;;8158647;28;20077;-73
2020/12/27 12:18:39;;;;;;;62.58;15.45;;;;;;;;;;8158559;28;20346;-73
2020/12/27 12:22:43;;;;;;;38.17;11.50;;;;;;;;;;8157951;28;20370;-73
2020/12/27 12:26:49;;;;;;;34.63;11.32;;;;;;;;;;8159160;28;20076;-74
2020/12/27 12:30:52;;;;;;;24.92;8.88;;;;;;;;;;8163924;28;20510;-73
2020/12/27 12:34:56;;;;;;;44.08;15.35;;;;;;;;;;8163136;28;20430;-73
2020/12/27 12:38:59;;;;;;;102.75;31.58;;;;;;;;;;8162035;28;20373;-74
2020/12/27 12:43:03;;;;;;;78.88;22.42;;;;;;;;;;8163962;28;20050;-73
2020/12/27 12:47:08;;;;;;;115.00;32.83;;;;;;;;;;8164327;28;20417;-73
2020/12/27 12:51:12;;;;;;;34.17;12.75;;;;;;;;;;8117406;28;20080;-74
2020/12/27 12:55:17;;;;;;;141.45;48.72;;;;;;;;;;8162315;28;20366;-74
2020/12/27 12:59:23;;;;;;;68.38;24.58;;;;;;;;;;8162906;28;20449;-74
2020/12/27 13:03:44;;;;;;;81.88;29.55;;;;;;;;;;8161086;28;20389;-73
2020/12/27 13:07:48;;;;;;;73.07;29.02;;;;;;;;;;8151843;28;20401;-71
2020/12/27 13:11:52;;;;;;;64.80;26.30;;;;;;;;;;8160325;28;20735;-71
2020/12/27 13:15:55;;;;;;;67.95;27.90;;;;;;;;;;8161090;28;20493;-71
2020/12/27 13:19:58;;;;;;;62.65;23.20;;;;;;;;;;8161204;28;20374;-72
2020/12/27 13:24:02;;;;;;;59.80;22.10;;;;;;;;;;8160846;28;20431;-71
2020/12/27 13:28:05;;;;;;;47.17;21.08;;;;;;;;;;8160588;28;20512;-73
2020/12/27 13:32:09;;;;;;;33.92;14.82;;;;;;;;;;8162293;28;20501;-71
2020/12/27 13:36:13;;;;;;;30.70;12.05;;;;;;;;;;8162119;28;20473;-71
2020/12/27 13:40:16;;;;;;;49.72;22.02;;;;;;;;;;8157937;28;20384;-71
2020/12/27 13:44:19;;;;;;;103.95;40.58;;;;;;;;;;8162229;28;20412;-70
2020/12/27 13:48:22;;;;;;;172.80;70.38;;;;;;;;;;8159570;28;20481;-72
2020/12/27 13:52:28;;;;;;;162.82;66.45;;;;;;;;;;8160494;28;20480;-70
2020/12/27 13:56:31;;;;;;;79.22;33.35;;;;;;;;;;8159613;28;20473;-70
2020/12/27 14:00:37;;;;;;;266.38;61.45;;;;;;;;;;8159291;28;20355;-70
2020/12/27 14:04:40;;;;;;;72.13;27.27;;;;;;;;;;8160272;28;20076;-70
2020/12/27 14:08:43;;;;;;;53.47;21.80;;;;;;;;;;8158880;28;20484;-70
2020/12/27 14:12:47;;;;;;;57.78;20.40;;;;;;;;;;8161591;28;20457;-71
2020/12/27 14:16:51;;;;;;;29.70;13.45;;;;;;;;;;8161198;28;20076;-72
2020/12/27 14:20:54;;;;;;;32.55;14.73;;;;;;;;;;8154974;28;20499;-73
2020/12/27 14:24:58;;;;;;;29.83;13.48;;;;;;;;;;8152970;28;20466;-75
2020/12/27 14:29:05;;;;;;;30.83;13.10;;;;;;;;;;8150903;28;20077;-73
2020/12/27 14:33:10;;;;;;;29.33;14.02;;;;;;;;;;8125560;28;20384;-73
2020/12/27 14:37:16;;;;;;;31.05;13.25;;;;;;;;;;8124864;28;20058;-72
2020/12/27 14:41:20;;;;;;;28.42;12.52;;;;;;;;;;8142523;28;20592;-70
2020/12/27 14:45:23;;;;;;;386.13;86.22;;;;;;;;;;8158823;28;20384;-71
2020/12/27 14:49:28;;;;;;;546.63;133.07;;;;;;;;;;8158230;28;20491;-73
2020/12/27 14:53:31;;;;;;;235.57;53.38;;;;;;;;;;8158789;28;20355;-72
2020/12/27 14:57:35;;;;;;;29.92;11.63;;;;;;;;;;8158146;28;20363;-72
2020/12/27 15:01:40;;;;;;;33.42;12.27;;;;;;;;;;8158881;28;20073;-73
2020/12/27 15:05:44;;;;;;;74.82;26.67;;;;;;;;;;8140419;28;20473;-73
2020/12/27 15:10:08;;;;;;;21.75;9.65;;;;;;;;;;8153790;28;20477;-72
2020/12/27 15:14:16;;;;;;;28.67;11.77;;;;;;;;;;8128512;28;20373;-73
2020/12/27 15:18:35;;;;;;;27.15;11.50;;;;;;;;;;8129038;28;20389;-72
2020/12/27 15:22:41;;;;;;;24.40;11.20;;;;;;;;;;8154590;28;20051;-70
2020/12/27 15:26:45;;;;;;;22.20;9.52;;;;;;;;;;8155684;28;20503;-71
2020/12/27 15:30:48;;;;;;;22.35;10.00;;;;;;;;;;8184073;28;20484;-71
2020/12/27 15:34:51;;;;;;;23.92;10.70;;;;;;;;;;8183114;28;20416;-71
2020/12/27 15:38:54;;;;;;;25.30;10.18;;;;;;;;;;8184303;28;20476;-70
2020/12/27 15:42:58;;;;;;;44.15;14.52;;;;;;;;;;8184796;28;20412;-71
2020/12/27 15:47:01;;;;;;;242.43;62.92;;;;;;;;;;8169357;28;20405;-73
2020/12/27 15:51:05;;;;;;;173.55;60.28;;;;;;;;;;8136468;28;20483;-73
2020/12/27 15:55:08;;;;;;;85.05;31.52;;;;;;;;;;8120600;28;20481;-73
2020/12/27 15:59:11;;;;;;;337.63;111.82;;;;;;;;;;8108061;28;20401;-73
2020/12/27 16:03:15;;;;;;;192.38;64.20;;;;;;;;;;8125472;28;20043;-73
2020/12/27 16:07:19;;;;;;;118.22;44.38;;;;;;;;;;8128552;28;20062;-72
2020/12/27 16:11:28;;;;;;;54.50;19.45;;;;;;;;;;8140841;28;20076;-72
2020/12/27 16:15:31;;;;;;;28.13;11.05;;;;;;;;;;8158170;28;20470;-71
2020/12/27 16:19:35;;;;;;;29.95;13.27;;;;;;;;;;8157633;28;20461;-73
2020/12/27 16:23:41;;;;;;;28.90;11.10;;;;;;;;;;8138367;28;20038;-72
2020/12/27 16:27:50;;;;;;;44.40;15.40;;;;;;;;;;8144259;28;20373;-73
2020/12/27 16:31:54;;;;;;;88.43;36.60;;;;;;;;;;8159640;28;20503;-73
2020/12/27 16:35:58;;;;;;;98.68;28.75;;;;;;;;;;8143642;28;20437;-70
2020/12/27 16:40:01;;;;;;;42.92;17.02;;;;;;;;;;8156193;28;20373;-70
2020/12/27 16:44:04;;;;;;;36.05;13.43;;;;;;;;;;8131757;28;20418;-71
2020/12/27 16:48:10;;;;;;;39.38;14.63;;;;;;;;;;8133965;28;20377;-73
2020/12/27 16:52:27;;;;;;;47.40;17.88;;;;;;;;;;8148833;28;20358;-73
2020/12/27 16:56:30;;;;;;;31.15;11.50;;;;;;;;;;8164241;28;20473;-73
2020/12/27 17:00:35;;;;;;;41.22;14.70;;;;;;;;;;8164115;28;20376;-74
2020/12/27 17:04:39;;;;;;;45.97;14.55;;;;;;;;;;8163822;28;20054;-73
2020/12/27 17:08:45;;;;;;;37.78;14.25;;;;;;;;;;8162443;28;20080;-73
2020/12/27 17:12:48;;;;;;;40.97;15.45;;;;;;;;;;8163272;28;20489;-73
2020/12/27 17:17:01;;;;;;;36.17;13.23;;;;;;;;;;8161301;28;20462;-73
2020/12/27 17:21:05;;;;;;;38.63;13.65;;;;;;;;;;8161847;28;20457;-73
2020/12/27 17:25:08;;;;;;;29.85;11.48;;;;;;;;;;8145993;28;20362;-73
2020/12/27 17:29:12;;;;;;;57.70;16.20;;;;;;;;;;8163124;28;20392;-73
2020/12/27 17:33:15;;;;;;;71.38;21.38;;;;;;;;;;8162761;28;20366;-73
2020/12/27 17:37:20;;;;;;;113.22;28.92;;;;;;;;;;8161508;28;20487;-73
2020/12/27 17:41:28;;;;;;;60.40;17.23;;;;;;;;;;8162993;28;20477;-73
2020/12/27 17:45:31;;;;;;;80.90;26.42;;;;;;;;;;8160776;28;20042;-73
2020/12/27 17:49:35;;;;;;;67.80;19.60;;;;;;;;;;8160763;28;20491;-73
2020/12/27 17:53:39;;;;;;;38.92;12.77;;;;;;;;;;8162341;28;20413;-73
2020/12/27 17:57:42;;;;;;;24.17;10.10;;;;;;;;;;8162508;28;20453;-73
2020/12/27 18:01:46;;;;;;;29.33;10.18;;;;;;;;;;8161919;28;20355;-73
2020/12/27 18:05:50;;;;;;;25.35;9.40;;;;;;;;;;8160733;28;20499;-73
2020/12/27 18:09:53;;;;;;;28.45;9.75;;;;;;;;;;8161554;28;20046;-73
2020/12/27 18:13:59;;;;;;;20.60;8.40;;;;;;;;;;8144972;28;20377;-73
2020/12/27 18:18:05;;;;;;;21.50;8.85;;;;;;;;;;8127166;28;20393;-73
2020/12/27 18:22:09;;;;;;;21.00;8.52;;;;;;;;;;8144870;28;20064;-73
2020/12/27 18:26:13;;;;;;;21.42;8.40;;;;;;;;;;8160662;28;20380;-72
2020/12/27 18:30:18;;;;;;;33.15;9.52;;;;;;;;;;8144244;28;20496;-73
2020/12/27 18:34:21;;;;;;;20.10;8.85;;;;;;;;;;8143705;28;20519;-73
2020/12/27 18:38:24;;;;;;;25.52;9.73;;;;;;;;;;8116788;28;20474;-73
2020/12/27 18:42:28;;;;;;;24.00;9.25;;;;;;;;;;8129444;28;20367;-72
2020/12/27 18:46:32;;;;;;;23.92;9.10;;;;;;;;;;8126648;28;20382;-72
2020/12/27 18:50:47;;;;;;;23.33;10.18;;;;;;;;;;8126525;28;20368;-71
2020/12/27 18:54:49;;;;;;;59.10;18.55;;;;;;;;;;8128055;28;20477;-72
2020/12/27 18:58:52;;;;;;;86.88;29.17;;;;;;;;;;8126704;28;20378;-72
2020/12/27 19:02:57;;;;;;;663.50;209.32;;;;;;;;;;8127255;28;20380;-72
2020/12/27 19:07:00;;;;;;;910.90;249.90;;;;;;;;;;8126558;28;20478;-72
2020/12/27 19:11:06;;;;;;;405.35;96.50;;;;;;;;;;8126732;28;20214;-73
2020/12/27 19:15:09;;;;;;;490.05;99.18;;;;;;;;;;8128834;28;20481;-72
2020/12/27 19:19:13;;;;;;;713.33;147.93;;;;;;;;;;8126242;28;20606;-73
2020/12/27 19:23:16;;;;;;;1064.35;228.50;;;;;;;;;;8139879;28;20366;-72
2020/12/27 19:27:19;;;;;;;135.90;34.03;;;;;;;;;;8156105;28;20131;-72
2020/12/27 19:31:25;;;;;;;431.27;86.88;;;;;;;;;;8140145;28;20417;-72
2020/12/27 19:35:28;;;;;;;639.42;138.73;;;;;;;;;;8155596;28;20585;-72
2020/12/27 19:39:31;;;;;;;386.98;79.90;;;;;;;;;;8160952;28;20433;-72
2020/12/27 19:43:36;;;;;;;485.35;105.55;;;;;;;;;;8162220;28;20481;-72
2020/12/27 19:47:40;;;;;;;194.68;48.25;;;;;;;;;;8162583;28;20461;-72
2020/12/27 19:51:48;;;;;;;85.53;24.73;;;;;;;;;;8160305;28;20474;-72
2020/12/27 19:55:51;;;;;;;379.58;101.25;;;;;;;;;;8134113;28;20366;-72
2020/12/27 19:59:55;;;;;;;448.70;121.03;;;;;;;;;;8133619;28;20504;-72
2020/12/27 20:03:58;;;;;;;118.38;33.55;;;;;;;;;;8133805;28;20458;-72
2020/12/27 20:08:02;;;;;;;104.90;32.20;;;;;;;;;;8133728;28;20429;-72
2020/12/27 20:12:05;;;;;;;78.03;28.95;;;;;;;;;;8135585;28;20477;-73
2020/12/27 20:16:08;;;;;;;46.28;15.52;;;;;;;;;;8133181;28;20501;-72
2020/12/27 20:20:13;;;;;;;94.57;28.02;;;;;;;;;;8131897;28;20470;-73
2020/12/27 20:24:19;;;;;;;51.03;17.25;;;;;;;;;;8133553;28;20462;-72
2020/12/27 20:28:22;;;;;;;202.93;50.40;;;;;;;;;;8131529;28;20086;-72
2020/12/27 20:32:25;;;;;;;116.05;32.53;;;;;;;;;;8132949;28;20381;-72
2020/12/27 20:36:29;;;;;;;105.15;32.17;;;;;;;;;;8132651;28;20478;-72
2020/12/27 20:40:33;;;;;;;79.90;26.95;;;;;;;;;;8132502;28;20367;-72
2020/12/27 20:44:37;;;;;;;102.45;34.60;;;;;;;;;;8130716;28;20469;-72
2020/12/27 20:48:40;;;;;;;62.00;20.27;;;;;;;;;;8131155;28;20493;-72
2020/12/27 20:52:43;;;;;;;125.57;43.67;;;;;;;;;;8132008;28;20511;-72
2020/12/27 20:56:47;;;;;;;89.72;37.00;;;;;;;;;;8132053;28;20478;-72
2020/12/27 21:00:50;;;;;;;53.30;20.05;;;;;;;;;;8132389;28;20474;-73
2020/12/27 21:04:57;;;;;;;41.50;15.68;;;;;;;;;;8130630;28;20055;-72
2020/12/27 21:09:01;;;;;;;39.03;14.50;;;;;;;;;;8130370;28;20515;-72
2020/12/27 21:13:04;;;;;;;68.53;21.98;;;;;;;;;;8129898;28;20474;-72
2020/12/27 21:17:07;;;;;;;41.75;14.88;;;;;;;;;;8131320;28;20385;-72
2020/12/27 21:21:13;;;;;;;53.28;15.98;;;;;;;;;;8131416;28;20371;-72
2020/12/27 21:25:16;;;;;;;31.13;12.07;;;;;;;;;;8131480;28;20494;-72
2020/12/27 21:29:24;;;;;;;154.70;47.28;;;;;;;;;;8131435;28;20378;-72
2020/12/27 21:33:30;;;;;;;122.72;40.58;;;;;;;;;;8129440;28;20582;-72
2020/12/27 21:37:33;;;;;;;72.15;23.42;;;;;;;;;;8144995;28;20462;-72
2020/12/27 21:41:36;;;;;;;114.50;36.92;;;;;;;;;;8131102;28;20051;-72
2020/12/27 21:45:39;;;;;;;128.88;51.83;;;;;;;;;;8131124;28;20478;-72
2020/12/27 21:49:43;;;;;;;47.72;19.77;;;;;;;;;;8129181;28;20458;-72
2020/12/27 21:53:47;;;;;;;39.75;15.02;;;;;;;;;;8096600;28;20427;-72
2020/12/27 21:57:50;;;;;;;48.63;15.43;;;;;;;;;;8130397;28;20076;-72
2020/12/27 22:01:54;;;;;;;44.03;15.07;;;;;;;;;;8130624;28;20515;-72
2020/12/27 22:05:57;;;;;;;844.03;191.75;;;;;;;;;;8128969;28;20458;-72
2020/12/27 22:10:05;;;;;;;562.08;110.50;;;;;;;;;;8128158;28;20084;-72
2020/12/27 22:14:10;;;;;;;1136.90;229.68;;;;;;;;;;8128158;28;20058;-72
2020/12/27 22:18:14;;;;;;;590.20;114.40;;;;;;;;;;8130290;28;20382;-72
2020/12/27 22:22:17;;;;;;;444.13;79.72;;;;;;;;;;8128723;28;20386;-72
2020/12/27 22:26:20;;;;;;;556.75;98.82;;;;;;;;;;8129975;28;20654;-72
2020/12/27 22:30:23;;;;;;;813.28;161.63;;;;;;;;;;8129341;28;20413;-72
2020/12/27 22:34:27;;;;;;;425.83;84.47;;;;;;;;;;8129717;28;20421;-72
2020/12/27 22:38:30;;;;;;;427.55;87.95;;;;;;;;;;8128313;28;20047;-72
2020/12/27 22:42:33;;;;;;;273.80;55.10;;;;;;;;;;8129377;28;20382;-72
2020/12/27 22:46:37;;;;;;;216.43;50.13;;;;;;;;;;8127365;28;20359;-72
2020/12/27 22:50:40;;;;;;;238.00;56.05;;;;;;;;;;8129055;28;20379;-73
2020/12/27 22:54:43;;;;;;;308.52;75.32;;;;;;;;;;8127317;28;20385;-73
2020/12/27 22:58:47;;;;;;;132.23;38.50;;;;;;;;;;8127476;28;20366;-72
2020/12/27 23:02:51;;;;;;;135.93;39.63;;;;;;;;;;8129063;28;20467;-72
2020/12/27 23:06:54;;;;;;;55.85;18.90;;;;;;;;;;8127167;28;20370;-72
2020/12/27 23:10:57;;;;;;;52.85;17.83;;;;;;;;;;8126815;28;20377;-72
2020/12/27 23:15:00;;;;;;;98.60;36.30;;;;;;;;;;8128322;28;20382;-72
2020/12/27 23:19:07;;;;;;;74.65;28.65;;;;;;;;;;8128538;28;20404;-72
2020/12/27 23:23:12;;;;;;;27.85;12.85;;;;;;;;;;8127026;28;20482;-72
2020/12/27 23:27:16;;;;;;;42.40;18.95;;;;;;;;;;8128464;28;20504;-72
2020/12/27 23:31:19;;;;;;;32.50;13.13;;;;;;;;;;8127870;28;20476;-72
2020/12/27 23:35:24;;;;;;;21.45;8.25;;;;;;;;;;8127859;28;20078;-72
2020/12/27 23:39:29;;;;;;;29.92;12.38;;;;;;;;;;8126484;28;20528;-72
2020/12/27 23:43:32;;;;;;;27.17;9.85;;;;;;;;;;8125948;28;20373;-72
2020/12/27 23:47:36;;;;;;;30.20;11.20;;;;;;;;;;8127633;28;20482;-72
2020/12/27 23:51:43;;;;;;;21.45;8.98;;;;;;;;;;8127896;28;20493;-72
2020/12/27 23:55:47;;;;;;;23.33;9.30;;;;;;;;;;8126198;28;20421;-73
2020/12/27 23:59:50;;;;;;;21.85;7.95;;;;;;;;;;8127501;28;20389;-72
